Cape Romanzof LRRS Airport Cape Romanzof US
ICAO: PACZ
IATA:
Category: Medium
Scheduled Services:

Elevation: 464 ft
TransAlt. 18000 ft.

Airport Communications:
ANCHORAGE ARTCC:124.5
ANCHORAGE CNTR:132.5
KENAI RDO:122.1
INFO:126.2

PACZ Zoom In..

If you have problems with the map follow the link
https://www.worldairports.se/pages/airport.php?
ICAO=PACZ

Runways:

(A) RW 02 length 3925 ft width 161 ft
---- / hdg 16

(B) RW 20 length 3925 ft width 161 ft
---- / hdg 196

Location; PACZ
Day. 14 / Time. 10.55 Zulu
* Altimeter: 29.69
* Temperature: -08° c. -17.6°f.
* Wind from: 040° Speed 22 kn.
Dewpoint: -11° c.
Visibility: 10 Statute Miles.
Clouds: Few 1300 ft.
Clouds: Scattered 5000 ft.
Clouds: Scattered 6500 ft.

PACZ 141055Z AUTO 04022KT 10SM FEW013 SCT050 SCT065 M08/M11 A2969 RMK AO2 PK WND 04037/1006 SLP064 T10791106


Wind From 040°
Speed 22 kn.

 
 
jpsmedia.com for Web Design worldairports.se 2018   terms of use